Time;durP1;ratioP1;P1;durP2;ratioP2;P2;SDS_P1;SDS_P2;PMS_P1;PMS_P2;Temp;Humidity;BMP_temperature;BMP_pressure;BME280_temperature;BME280_humidity;BME280_pressure;Samples;Min_cycle;Max_cycle;Signal;HPM_P1;HPM_P2
2023/06/16 00:00:11;;;;;;;;;;;19.10;78.00;;;;;;5011901;28;87572;-48
2023/06/16 00:02:41;;;;;;;;;;;19.10;77.90;;;;;;5014387;28;88824;-47
2023/06/16 00:05:08;;;;;;;;;;;19.10;77.90;;;;;;5012374;28;89475;-50
2023/06/16 00:07:34;;;;;;;;;;;19.10;77.90;;;;;;5013793;28;87934;-52
2023/06/16 00:10:00;;;;;;;;;;;19.10;77.90;;;;;;5009934;28;90379;-49
2023/06/16 00:12:26;;;;;;;;;;;19.10;77.90;;;;;;5012339;28;87184;-49
2023/06/16 00:14:51;;;;;;;;;;;19.10;78.00;;;;;;5013773;28;88762;-51
2023/06/16 00:17:20;;;;;;;;;;;19.10;77.90;;;;;;5010773;28;88632;-52
2023/06/16 00:19:47;;;;;;;;;;;19.10;78.00;;;;;;5011844;28;87197;-48
2023/06/16 00:22:12;;;;;;;;;;;19.10;78.00;;;;;;5013636;28;89277;-47
2023/06/16 00:24:38;;;;;;;;;;;19.00;77.90;;;;;;5010598;28;88122;-48
2023/06/16 00:27:03;;;;;;;;;;;19.10;78.00;;;;;;5012669;28;86373;-47
2023/06/16 00:29:29;;;;;;;;;;;19.00;77.90;;;;;;5012557;28;87027;-48
2023/06/16 00:31:55;;;;;;;;;;;19.10;77.90;;;;;;5012644;28;87122;-50
2023/06/16 00:34:21;;;;;;;;;;;19.00;77.90;;;;;;5011740;28;87986;-49
2023/06/16 00:36:46;;;;;;;;;;;19.00;77.90;;;;;;5009976;28;88206;-51
2023/06/16 00:39:12;;;;;;;;;;;19.00;77.90;;;;;;5012873;28;87116;-50
2023/06/16 00:41:37;;;;;;;;;;;19.00;77.80;;;;;;5009643;28;87409;-47
2023/06/16 00:44:03;;;;;;;;;;;19.00;77.90;;;;;;5013001;28;88202;-51
2023/06/16 00:46:32;;;;;;;;;;;19.00;78.00;;;;;;5010694;28;87127;-47
2023/06/16 00:48:58;;;;;;;;;;;19.00;77.80;;;;;;5011790;28;89370;-48
2023/06/16 00:51:25;;;;;;;;;;;19.00;77.90;;;;;;5015548;28;88585;-50
2023/06/16 00:53:50;;;;;;;;;;;19.00;77.90;;;;;;5011374;28;87022;-53
2023/06/16 00:56:16;;;;;;;;;;;19.00;78.00;;;;;;5011236;28;88324;-52
2023/06/16 00:58:43;;;;;;;;;;;19.00;77.90;;;;;;5009888;28;88096;-50
2023/06/16 01:01:08;;;;;;;;;;;19.00;77.90;;;;;;5012577;28;88437;-50
2023/06/16 01:03:34;;;;;;;;;;;19.00;78.00;;;;;;5011765;28;88021;-47
2023/06/16 01:06:03;;;;;;;;;;;19.00;78.00;;;;;;5010242;28;87187;-48
2023/06/16 01:08:50;;;;;;;;;;;19.00;77.90;;;;;;5012231;28;87485;-50
2023/06/16 01:11:15;;;;;;;;;;;19.00;77.90;;;;;;5007528;28;88018;-54
2023/06/16 01:13:55;;;;;;;;;;;18.90;78.50;;;;;;5013573;28;87131;-46
2023/06/16 01:16:22;;;;;;;;;;;19.00;77.90;;;;;;5009175;28;88959;-51
2023/06/16 01:18:49;;;;;;;;;;;19.00;78.00;;;;;;5009500;28;87030;-48
2023/06/16 01:21:21;;;;;;;;;;;19.00;77.90;;;;;;5011865;28;87476;-50
2023/06/16 01:24:04;;;;;;;;;;;19.00;77.90;;;;;;5009840;28;92458;-52
2023/06/16 01:26:31;;;;;;;;;;;19.00;78.00;;;;;;5006878;28;87849;-54
2023/06/16 01:28:59;;;;;;;;;;;18.90;77.90;;;;;;5006488;28;88857;-50
2023/06/16 01:31:25;;;;;;;;;;;18.90;78.00;;;;;;5011113;28;88041;-52
2023/06/16 01:33:51;;;;;;;;;;;18.90;77.90;;;;;;5012641;28;87194;-51
2023/06/16 01:36:17;;;;;;;;;;;18.90;78.00;;;;;;5012710;28;87336;-53
2023/06/16 01:38:43;;;;;;;;;;;18.90;78.00;;;;;;5010486;28;87212;-51
2023/06/16 01:41:09;;;;;;;;;;;18.90;78.00;;;;;;5008374;28;87682;-52
2023/06/16 01:43:35;;;;;;;;;;;18.90;77.90;;;;;;5009720;28;89445;-52
2023/06/16 01:46:01;;;;;;;;;;;18.90;78.00;;;;;;5011170;28;87449;-53
2023/06/16 01:48:26;;;;;;;;;;;18.90;78.00;;;;;;5012272;28;88066;-52
2023/06/16 01:50:52;;;;;;;;;;;18.90;78.00;;;;;;5006268;28;88048;-51
2023/06/16 01:53:17;;;;;;;;;;;18.90;78.00;;;;;;5011583;28;87115;-50
2023/06/16 01:55:47;;;;;;;;;;;18.90;78.10;;;;;;5010855;28;87153;-53
2023/06/16 01:58:15;;;;;;;;;;;18.90;78.10;;;;;;5007130;28;87108;-49
2023/06/16 02:00:43;;;;;;;;;;;18.90;78.10;;;;;;5010551;28;87381;-49
2023/06/16 02:03:09;;;;;;;;;;;18.80;78.00;;;;;;5013838;28;87718;-48
2023/06/16 02:05:35;;;;;;;;;;;18.90;78.10;;;;;;5014716;28;87382;-48
2023/06/16 02:08:02;;;;;;;;;;;18.90;78.10;;;;;;5013741;28;87035;-50
2023/06/16 02:10:28;;;;;;;;;;;18.80;78.10;;;;;;5015593;28;88059;-46
2023/06/16 02:12:54;;;;;;;;;;;18.80;78.10;;;;;;5012962;28;88189;-47
2023/06/16 02:15:21;;;;;;;;;;;18.80;78.10;;;;;;5013651;28;87569;-50
2023/06/16 02:17:49;;;;;;;;;;;18.80;78.10;;;;;;5018191;28;88536;-49
2023/06/16 02:20:15;;;;;;;;;;;18.80;78.10;;;;;;5014417;28;87182;-48
2023/06/16 02:22:40;;;;;;;;;;;18.80;78.10;;;;;;5012535;28;88166;-50
2023/06/16 02:25:06;;;;;;;;;;;18.80;78.10;;;;;;5009297;28;87120;-51
2023/06/16 02:27:32;;;;;;;;;;;18.80;78.10;;;;;;5013903;28;87716;-48
2023/06/16 02:29:57;;;;;;;;;;;18.80;78.10;;;;;;5015726;28;87285;-51
2023/06/16 02:32:23;;;;;;;;;;;18.80;78.10;;;;;;5012807;28;87192;-48
2023/06/16 02:34:48;;;;;;;;;;;18.80;78.10;;;;;;5014579;28;87331;-51
2023/06/16 02:37:14;;;;;;;;;;;18.80;78.10;;;;;;5013826;28;89158;-48
2023/06/16 02:39:40;;;;;;;;;;;18.80;78.20;;;;;;5014911;28;87154;-50
2023/06/16 02:42:07;;;;;;;;;;;18.80;78.20;;;;;;5013309;28;87819;-49
2023/06/16 02:44:33;;;;;;;;;;;18.80;78.20;;;;;;5012841;28;87117;-50
2023/06/16 02:47:00;;;;;;;;;;;18.80;78.20;;;;;;5015425;28;87398;-49
2023/06/16 02:49:26;;;;;;;;;;;18.80;78.20;;;;;;5013381;28;88043;-50
2023/06/16 02:51:51;;;;;;;;;;;18.70;78.20;;;;;;5012729;28;87085;-51
2023/06/16 02:54:17;;;;;;;;;;;18.80;78.30;;;;;;5015598;28;86944;-50
2023/06/16 02:56:42;;;;;;;;;;;18.80;78.30;;;;;;5012843;28;88059;-48
2023/06/16 02:59:10;;;;;;;;;;;18.70;78.20;;;;;;5014679;28;87202;-49
2023/06/16 03:01:36;;;;;;;;;;;18.70;78.20;;;;;;5014217;28;88751;-53
2023/06/16 03:04:03;;;;;;;;;;;18.70;78.20;;;;;;5014067;28;87114;-48
2023/06/16 03:06:29;;;;;;;;;;;18.70;78.20;;;;;;5014911;28;87398;-47
2023/06/16 03:08:57;;;;;;;;;;;18.70;78.20;;;;;;5011725;28;89636;-49
2023/06/16 03:11:23;;;;;;;;;;;18.70;78.20;;;;;;5009405;28;88998;-49
2023/06/16 03:13:48;;;;;;;;;;;18.70;78.30;;;;;;5013306;28;88002;-48
2023/06/16 03:16:16;;;;;;;;;;;18.70;78.20;;;;;;5008298;28;87849;-48
2023/06/16 03:18:42;;;;;;;;;;;18.70;78.30;;;;;;5013531;28;86393;-50
2023/06/16 03:21:08;;;;;;;;;;;18.70;78.30;;;;;;5014828;28;87024;-47
2023/06/16 03:23:33;;;;;;;;;;;18.70;78.30;;;;;;5014772;28;89675;-51
2023/06/16 03:25:59;;;;;;;;;;;18.70;78.30;;;;;;5012633;28;87988;-50
2023/06/16 03:28:25;;;;;;;;;;;18.70;78.30;;;;;;5009957;28;88207;-47
2023/06/16 03:30:52;;;;;;;;;;;18.70;78.20;;;;;;5008287;28;87133;-51
2023/06/16 03:33:18;;;;;;;;;;;18.70;78.30;;;;;;5013011;28;89090;-47
2023/06/16 03:35:44;;;;;;;;;;;18.70;78.20;;;;;;5013873;28;89202;-49
2023/06/16 03:38:10;;;;;;;;;;;18.70;78.30;;;;;;5011792;28;87249;-50
2023/06/16 03:40:35;;;;;;;;;;;18.70;78.30;;;;;;5012584;28;88023;-49
2023/06/16 03:43:02;;;;;;;;;;;18.70;78.30;;;;;;5014072;28;87674;-51
2023/06/16 03:45:27;;;;;;;;;;;18.70;78.30;;;;;;5010840;28;87129;-50
2023/06/16 03:47:53;;;;;;;;;;;18.70;78.40;;;;;;5012674;28;88187;-49
2023/06/16 03:50:18;;;;;;;;;;;18.70;78.30;;;;;;5013510;28;88027;-50
2023/06/16 03:52:44;;;;;;;;;;;18.60;78.30;;;;;;5011495;28;88431;-48
2023/06/16 03:55:10;;;;;;;;;;;18.60;78.30;;;;;;5012833;28;88153;-52
2023/06/16 03:57:35;;;;;;;;;;;18.70;78.30;;;;;;5010086;28;87102;-49
2023/06/16 04:00:01;;;;;;;;;;;18.60;78.30;;;;;;5014333;28;87658;-48
2023/06/16 04:02:26;;;;;;;;;;;18.60;78.30;;;;;;5011877;28;88026;-51
2023/06/16 04:04:55;;;;;;;;;;;18.60;78.30;;;;;;5014759;28;87124;-53
2023/06/16 04:07:21;;;;;;;;;;;18.60;78.30;;;;;;5014024;28;87029;-50
2023/06/16 04:09:46;;;;;;;;;;;18.60;78.30;;;;;;5012289;28;87154;-52
2023/06/16 04:12:12;;;;;;;;;;;18.60;78.30;;;;;;5011387;28;87431;-47
2023/06/16 04:14:37;;;;;;;;;;;18.60;78.50;;;;;;5010059;28;88990;-52
2023/06/16 04:17:03;;;;;;;;;;;18.60;78.40;;;;;;5013126;28;87125;-48
2023/06/16 04:19:29;;;;;;;;;;;18.60;78.30;;;;;;5013514;28;87560;-53
2023/06/16 04:21:55;;;;;;;;;;;18.60;78.30;;;;;;5010662;28;87933;-49
2023/06/16 04:24:20;;;;;;;;;;;18.60;78.40;;;;;;5013071;28;87095;-48
2023/06/16 04:26:48;;;;;;;;;;;18.60;78.30;;;;;;5011970;28;87335;-52
2023/06/16 04:29:14;;;;;;;;;;;18.60;78.30;;;;;;5013659;28;87875;-49
2023/06/16 04:31:42;;;;;;;;;;;18.60;78.30;;;;;;5012515;28;87342;-51
2023/06/16 04:34:11;;;;;;;;;;;18.60;78.30;;;;;;5010695;28;89913;-48
2023/06/16 04:36:44;;;;;;;;;;;18.60;78.40;;;;;;5007638;28;87487;-49
2023/06/16 04:39:11;;;;;;;;;;;18.60;78.40;;;;;;5010350;28;88622;-47
2023/06/16 04:41:37;;;;;;;;;;;18.60;79.00;;;;;;5006534;28;89404;-49
2023/06/16 04:44:03;;;;;;;;;;;18.50;78.30;;;;;;5011995;28;88396;-52
2023/06/16 04:46:29;;;;;;;;;;;18.60;78.40;;;;;;5010847;28;89014;-53
2023/06/16 04:48:54;;;;;;;;;;;18.50;78.40;;;;;;5009564;28;89107;-51
2023/06/16 04:51:20;;;;;;;;;;;18.60;78.40;;;;;;5010732;28;90565;-47
2023/06/16 04:53:45;;;;;;;;;;;18.60;78.30;;;;;;5012883;28;88036;-50
2023/06/16 04:56:11;;;;;;;;;;;18.60;78.30;;;;;;5011107;28;86568;-54
2023/06/16 04:58:36;;;;;;;;;;;18.50;78.30;;;;;;5011952;28;87101;-50
2023/06/16 05:01:02;;;;;;;;;;;18.60;78.50;;;;;;5012331;28;88352;-51
2023/06/16 05:03:27;;;;;;;;;;;18.60;78.40;;;;;;5010046;28;88044;-54
2023/06/16 05:05:53;;;;;;;;;;;18.60;78.40;;;;;;5012344;28;87789;-51
2023/06/16 05:08:18;;;;;;;;;;;18.60;78.40;;;;;;5012230;28;88250;-47
2023/06/16 05:10:44;;;;;;;;;;;18.60;78.40;;;;;;5011709;28;87063;-51
2023/06/16 05:13:09;;;;;;;;;;;18.50;78.30;;;;;;5010522;28;87945;-53
2023/06/16 05:15:35;;;;;;;;;;;18.50;78.30;;;;;;5011948;28;87129;-49
2023/06/16 05:18:01;;;;;;;;;;;18.50;78.40;;;;;;5010508;28;87164;-53
2023/06/16 05:20:26;;;;;;;;;;;18.50;78.30;;;;;;5012782;28;87359;-56
2023/06/16 05:22:51;;;;;;;;;;;18.50;78.40;;;;;;5012182;28;87125;-55
2023/06/16 05:25:17;;;;;;;;;;;18.50;78.40;;;;;;5010375;28;87091;-51
2023/06/16 05:27:42;;;;;;;;;;;18.50;78.40;;;;;;5004450;28;90444;-53
2023/06/16 05:30:08;;;;;;;;;;;18.50;78.30;;;;;;5011855;28;87124;-51
2023/06/16 05:32:34;;;;;;;;;;;18.50;78.40;;;;;;5015137;28;87484;-52
2023/06/16 05:34:59;;;;;;;;;;;18.50;78.40;;;;;;5010164;28;87296;-52
2023/06/16 05:37:25;;;;;;;;;;;18.60;78.40;;;;;;5012524;28;88623;-49
2023/06/16 05:39:51;;;;;;;;;;;18.50;78.40;;;;;;5015131;28;88044;-50
2023/06/16 05:42:17;;;;;;;;;;;18.50;78.30;;;;;;5012543;28;87125;-53
2023/06/16 05:44:43;;;;;;;;;;;18.50;78.30;;;;;;5011134;28;87860;-48
2023/06/16 05:47:09;;;;;;;;;;;18.50;78.30;;;;;;5013292;28;88211;-54
2023/06/16 05:49:34;;;;;;;;;;;18.60;78.30;;;;;;5012963;28;87165;-50
2023/06/16 05:52:02;;;;;;;;;;;18.60;78.30;;;;;;5014733;28;88128;-51
2023/06/16 05:54:33;;;;;;;;;;;18.60;78.40;;;;;;5018011;28;88406;-49
2023/06/16 05:56:59;;;;;;;;;;;18.60;78.40;;;;;;5010501;28;87422;-51
2023/06/16 05:59:25;;;;;;;;;;;18.60;78.40;;;;;;5013324;28;88270;-50
2023/06/16 06:01:51;;;;;;;;;;;18.60;78.30;;;;;;5016065;28;87108;-50
2023/06/16 06:04:20;;;;;;;;;;;18.50;78.40;;;;;;5013335;28;89075;-51
2023/06/16 06:06:45;;;;;;;;;;;18.50;78.50;;;;;;5013401;28;89406;-48
2023/06/16 06:09:11;;;;;;;;;;;18.50;78.50;;;;;;5016532;28;86395;-53
2023/06/16 06:11:36;;;;;;;;;;;18.60;78.50;;;;;;5013605;28;87072;-50
2023/06/16 06:14:02;;;;;;;;;;;18.60;78.50;;;;;;5015944;28;88316;-51
2023/06/16 06:16:28;;;;;;;;;;;18.60;78.50;;;;;;5012308;28;87996;-49
2023/06/16 06:18:53;;;;;;;;;;;18.60;78.60;;;;;;5009201;28;89508;-51
2023/06/16 06:21:19;;;;;;;;;;;18.60;78.50;;;;;;5014315;28;87125;-46
2023/06/16 06:23:44;;;;;;;;;;;18.60;78.60;;;;;;5015756;28;88732;-49
2023/06/16 06:26:10;;;;;;;;;;;18.60;78.70;;;;;;5014820;28;89503;-51
2023/06/16 06:28:35;;;;;;;;;;;18.60;78.60;;;;;;5012684;28;88326;-51
2023/06/16 06:31:01;;;;;;;;;;;18.60;78.60;;;;;;5015663;28;87395;-47
2023/06/16 06:33:27;;;;;;;;;;;18.60;78.50;;;;;;5013189;28;87434;-51
2023/06/16 06:35:53;;;;;;;;;;;18.60;78.70;;;;;;5016746;28;87324;-51
2023/06/16 06:38:18;;;;;;;;;;;18.60;78.40;;;;;;5014652;28;89200;-47
2023/06/16 06:40:44;;;;;;;;;;;18.60;78.40;;;;;;5011586;28;88132;-48
2023/06/16 06:43:09;;;;;;;;;;;18.70;78.50;;;;;;5013795;28;88575;-52
2023/06/16 06:45:35;;;;;;;;;;;18.60;78.30;;;;;;5012638;28;88204;-48
2023/06/16 06:48:00;;;;;;;;;;;18.60;78.50;;;;;;5015481;28;87603;-51
2023/06/16 06:50:26;;;;;;;;;;;18.60;78.20;;;;;;5012376;28;87082;-51
2023/06/16 06:52:51;;;;;;;;;;;18.60;78.30;;;;;;5013101;28;88019;-48
2023/06/16 06:55:18;;;;;;;;;;;18.70;78.60;;;;;;5015336;28;87219;-50
2023/06/16 06:57:44;;;;;;;;;;;18.70;78.50;;;;;;5016344;28;87435;-49
2023/06/16 07:00:10;;;;;;;;;;;18.60;78.40;;;;;;5011118;28;87261;-48
2023/06/16 07:02:35;;;;;;;;;;;18.60;78.50;;;;;;5014941;28;87374;-51
2023/06/16 07:05:02;;;;;;;;;;;18.70;78.70;;;;;;5011705;28;90342;-51
2023/06/16 07:07:27;;;;;;;;;;;18.60;78.60;;;;;;5012714;28;87133;-51
2023/06/16 07:09:53;;;;;;;;;;;18.60;78.90;;;;;;5014894;28;87523;-48
2023/06/16 07:12:18;;;;;;;;;;;18.60;78.90;;;;;;5012858;28;88155;-53
2023/06/16 07:14:47;;;;;;;;;;;18.60;79.00;;;;;;5011769;28;87156;-48
2023/06/16 07:17:13;;;;;;;;;;;18.60;79.20;;;;;;5012237;28;87521;-51
2023/06/16 07:19:38;;;;;;;;;;;18.70;79.00;;;;;;5016786;28;88248;-50
2023/06/16 07:22:05;;;;;;;;;;;18.70;78.90;;;;;;5014678;28;87490;-49
2023/06/16 07:24:31;;;;;;;;;;;18.70;79.10;;;;;;5011586;28;89284;-49
2023/06/16 07:26:56;;;;;;;;;;;18.70;79.30;;;;;;5014039;28;87715;-47
2023/06/16 07:29:22;;;;;;;;;;;18.70;79.20;;;;;;5009321;28;88679;-49
2023/06/16 07:31:47;;;;;;;;;;;18.70;80.20;;;;;;5014360;28;88559;-50
2023/06/16 07:34:13;;;;;;;;;;;18.70;79.50;;;;;;5012049;28;87136;-47
2023/06/16 07:36:38;;;;;;;;;;;18.70;79.70;;;;;;5013095;28;87134;-48
2023/06/16 07:39:04;;;;;;;;;;;18.70;79.50;;;;;;5014173;28;88376;-48
2023/06/16 07:41:31;;;;;;;;;;;18.80;79.60;;;;;;5014353;28;87175;-49
2023/06/16 07:43:56;;;;;;;;;;;18.70;79.60;;;;;;5010865;28;87953;-50
2023/06/16 07:46:22;;;;;;;;;;;18.70;79.80;;;;;;5012037;28;86403;-52
2023/06/16 07:48:47;;;;;;;;;;;18.70;79.70;;;;;;5014450;28;87032;-53
2023/06/16 07:51:13;;;;;;;;;;;18.70;79.70;;;;;;5012711;28;88284;-48
2023/06/16 07:53:42;;;;;;;;;;;18.80;79.70;;;;;;5011102;28;88116;-48
2023/06/16 07:56:08;;;;;;;;;;;18.80;79.70;;;;;;5008517;28;88702;-47
2023/06/16 07:58:35;;;;;;;;;;;18.70;79.40;;;;;;5011692;28;88208;-45
2023/06/16 08:01:01;;;;;;;;;;;18.80;79.80;;;;;;5013625;28;87159;-50
2023/06/16 08:03:26;;;;;;;;;;;18.80;79.90;;;;;;5014577;28;87503;-50
2023/06/16 08:05:52;;;;;;;;;;;18.80;79.80;;;;;;5012566;28;87099;-49
2023/06/16 08:08:18;;;;;;;;;;;18.80;79.70;;;;;;5013954;28;88882;-52
2023/06/16 08:10:44;;;;;;;;;;;18.70;79.60;;;;;;5012044;28;87299;-52
2023/06/16 08:13:10;;;;;;;;;;;18.70;79.70;;;;;;5012328;28;86936;-49
2023/06/16 08:15:35;;;;;;;;;;;18.80;79.80;;;;;;5010665;28;87283;-47
2023/06/16 08:18:01;;;;;;;;;;;18.70;79.50;;;;;;5012496;28;88790;-49
2023/06/16 08:20:26;;;;;;;;;;;18.80;79.70;;;;;;5012176;28;87107;-50
2023/06/16 08:22:52;;;;;;;;;;;18.80;79.60;;;;;;5014106;28;87539;-51
2023/06/16 08:25:17;;;;;;;;;;;18.80;79.70;;;;;;5013860;28;87123;-48
2023/06/16 08:27:43;;;;;;;;;;;18.80;79.70;;;;;;5012203;28;87389;-48
2023/06/16 08:30:10;;;;;;;;;;;18.80;79.60;;;;;;5011909;28;88207;-48
2023/06/16 08:32:35;;;;;;;;;;;18.70;79.40;;;;;;5010800;28;87230;-54
2023/06/16 08:35:01;;;;;;;;;;;18.80;79.70;;;;;;5013141;28;87431;-49
2023/06/16 08:37:27;;;;;;;;;;;18.80;79.40;;;;;;5012697;28;88414;-49
2023/06/16 08:39:52;;;;;;;;;;;18.80;79.60;;;;;;5010077;28;87162;-48
2023/06/16 08:42:18;;;;;;;;;;;18.80;79.80;;;;;;5011997;28;88013;-50
2023/06/16 08:44:44;;;;;;;;;;;18.80;79.60;;;;;;5013779;28;88328;-48
2023/06/16 08:47:09;;;;;;;;;;;18.80;79.50;;;;;;5013283;28;88008;-50
2023/06/16 08:49:35;;;;;;;;;;;18.80;79.80;;;;;;5011267;28;87384;-53
2023/06/16 08:52:02;;;;;;;;;;;18.80;79.80;;;;;;5011659;28;87813;-48
2023/06/16 08:54:31;;;;;;;;;;;18.80;79.80;;;;;;5013502;28;87715;-53
2023/06/16 08:57:01;;;;;;;;;;;18.80;79.80;;;;;;5011358;28;89192;-48
2023/06/16 08:59:28;;;;;;;;;;;18.80;80.30;;;;;;5005709;28;86364;-51
2023/06/16 09:01:54;;;;;;;;;;;18.80;80.10;;;;;;5012653;28;88219;-54
2023/06/16 09:04:20;;;;;;;;;;;18.80;79.80;;;;;;5011656;28;89308;-48
2023/06/16 09:06:47;;;;;;;;;;;18.90;79.80;;;;;;5012529;28;88020;-46
2023/06/16 09:09:13;;;;;;;;;;;18.80;80.20;;;;;;5011964;28;88859;-50
2023/06/16 09:11:39;;;;;;;;;;;18.80;80.20;;;;;;5012492;28;87941;-51
2023/06/16 09:14:10;;;;;;;;;;;18.90;80.00;;;;;;5012668;28;87599;-49
2023/06/16 09:16:37;;;;;;;;;;;19.00;79.90;;;;;;5012679;28;88372;-51
2023/06/16 09:19:08;;;;;;;;;;;18.90;79.40;;;;;;5013610;28;87152;-53
2023/06/16 09:21:34;;;;;;;;;;;18.90;79.90;;;;;;5015763;28;87105;-48
2023/06/16 09:24:00;;;;;;;;;;;19.00;79.70;;;;;;5016404;28;87175;-53
2023/06/16 09:26:30;;;;;;;;;;;19.00;79.70;;;;;;5014084;28;87341;-48
2023/06/16 09:28:56;;;;;;;;;;;19.00;79.70;;;;;;5017696;28;87316;-50
2023/06/16 09:31:23;;;;;;;;;;;19.00;79.70;;;;;;5011102;28;88098;-51
2023/06/16 09:33:48;;;;;;;;;;;19.00;80.00;;;;;;5016197;28;88399;-54
2023/06/16 09:36:25;;;;;;;;;;;19.00;80.00;;;;;;5014979;28;88113;-50
2023/06/16 09:38:50;;;;;;;;;;;19.00;79.80;;;;;;5010554;28;87366;-50
2023/06/16 09:41:16;;;;;;;;;;;19.00;79.90;;;;;;5014220;28;87111;-47
2023/06/16 09:43:42;;;;;;;;;;;19.00;80.00;;;;;;5016087;28;87326;-52
2023/06/16 09:46:08;;;;;;;;;;;19.00;80.00;;;;;;5011992;28;89093;-47
2023/06/16 09:48:34;;;;;;;;;;;19.00;80.00;;;;;;5015748;28;87001;-47
2023/06/16 09:51:00;;;;;;;;;;;19.00;79.80;;;;;;5015834;28;88618;-48
2023/06/16 09:53:26;;;;;;;;;;;19.00;79.70;;;;;;5016296;28;87327;-49
2023/06/16 09:55:53;;;;;;;;;;;19.00;80.20;;;;;;5013658;28;90334;-50
2023/06/16 09:58:19;;;;;;;;;;;19.00;79.90;;;;;;5013412;28;87252;-47
2023/06/16 10:00:44;;;;;;;;;;;19.00;80.00;;;;;;5013560;28;87766;-47
2023/06/16 10:03:10;;;;;;;;;;;19.00;80.00;;;;;;5014019;28;89341;-50
2023/06/16 10:05:37;;;;;;;;;;;19.00;80.00;;;;;;5015920;28;87152;-48
2023/06/16 10:08:06;;;;;;;;;;;19.00;79.80;;;;;;5013311;28;88506;-50
2023/06/16 10:10:33;;;;;;;;;;;19.10;79.90;;;;;;5013547;28;88302;-50
2023/06/16 10:13:02;;;;;;;;;;;19.10;80.20;;;;;;5019023;28;86181;-51
2023/06/16 10:15:30;;;;;;;;;;;19.10;80.10;;;;;;5012072;28;89461;-49
2023/06/16 10:18:02;;;;;;;;;;;19.10;79.90;;;;;;5015932;28;87132;-47
2023/06/16 10:20:28;;;;;;;;;;;19.10;79.70;;;;;;5013739;28;87994;-48
2023/06/16 10:22:54;;;;;;;;;;;19.10;79.80;;;;;;5012911;28;89506;-52
2023/06/16 10:25:21;;;;;;;;;;;19.10;80.00;;;;;;5015491;28;87051;-49
2023/06/16 10:27:47;;;;;;;;;;;19.10;79.80;;;;;;5013741;28;89205;-48
2023/06/16 10:30:16;;;;;;;;;;;19.10;79.90;;;;;;5013537;28;88136;-46
2023/06/16 10:32:48;;;;;;;;;;;19.10;79.90;;;;;;5012467;28;87141;-48
2023/06/16 10:35:14;;;;;;;;;;;19.10;80.10;;;;;;5012846;28;88189;-49
2023/06/16 10:37:40;;;;;;;;;;;19.10;79.90;;;;;;5015647;28;86446;-50
2023/06/16 10:40:08;;;;;;;;;;;19.10;80.10;;;;;;5012849;28;88253;-51
2023/06/16 10:42:34;;;;;;;;;;;19.10;80.10;;;;;;5012417;28;88119;-48
2023/06/16 10:45:18;;;;;;;;;;;19.10;79.90;;;;;;5013743;28;88049;-48
2023/06/16 10:47:54;;;;;;;;;;;19.10;80.00;;;;;;5012392;28;89626;-49
2023/06/16 10:50:20;;;;;;;;;;;19.10;80.00;;;;;;5012284;28;89470;-48
2023/06/16 10:52:45;;;;;;;;;;;19.10;80.00;;;;;;5008730;28;87085;-49
2023/06/16 10:55:32;;;;;;;;;;;19.10;80.00;;;;;;5016469;28;87429;-50
2023/06/16 10:58:19;;;;;;;;;;;19.10;79.80;;;;;;5011473;28;87095;-52
2023/06/16 11:00:56;;;;;;;;;;;19.20;80.10;;;;;;5010174;28;87915;-48
2023/06/16 11:03:22;;;;;;;;;;;19.20;80.10;;;;;;5010784;28;87197;-47
2023/06/16 11:05:48;;;;;;;;;;;19.20;80.10;;;;;;5012815;28;87190;-49
2023/06/16 11:08:14;;;;;;;;;;;19.20;80.00;;;;;;5015084;28;87383;-48
2023/06/16 11:10:53;;;;;;;;;;;19.20;80.20;;;;;;5012064;28;89405;-46
2023/06/16 11:13:21;;;;;;;;;;;19.20;79.90;;;;;;5008703;28;87449;-47
2023/06/16 11:15:46;;;;;;;;;;;19.30;79.80;;;;;;5011388;28;87414;-48
2023/06/16 11:18:12;;;;;;;;;;;19.20;80.00;;;;;;5014504;28;89140;-49
2023/06/16 11:20:38;;;;;;;;;;;19.30;79.90;;;;;;5014508;28;87424;-49
2023/06/16 11:23:04;;;;;;;;;;;19.30;79.90;;;;;;5013345;28;87981;-48
2023/06/16 11:25:30;;;;;;;;;;;19.30;80.00;;;;;;5011883;28;87801;-51
2023/06/16 11:27:56;;;;;;;;;;;19.30;79.80;;;;;;5015071;28;86942;-49
2023/06/16 11:30:21;;;;;;;;;;;19.30;79.90;;;;;;5010086;28;88219;-48
2023/06/16 11:32:47;;;;;;;;;;;19.30;79.90;;;;;;5014382;28;87034;-48
2023/06/16 11:35:13;;;;;;;;;;;19.30;80.00;;;;;;5007129;28;88045;-47
2023/06/16 11:37:49;;;;;;;;;;;19.30;79.90;;;;;;5013125;28;88130;-48
2023/06/16 11:40:21;;;;;;;;;;;19.30;80.00;;;;;;5010790;28;87259;-48
2023/06/16 11:43:05;;;;;;;;;;;19.30;80.10;;;;;;5011494;28;88487;-47
2023/06/16 11:45:32;;;;;;;;;;;19.40;79.90;;;;;;5008835;28;87200;-50
2023/06/16 11:47:58;;;;;;;;;;;19.40;80.10;;;;;;5014482;28;87389;-49
2023/06/16 11:50:24;;;;;;;;;;;19.40;79.90;;;;;;5012412;28;88049;-49
2023/06/16 11:52:50;;;;;;;;;;;19.40;80.00;;;;;;5012659;28;86680;-47
2023/06/16 11:55:16;;;;;;;;;;;19.40;80.00;;;;;;5014115;28;88335;-48
2023/06/16 11:57:41;;;;;;;;;;;19.40;80.10;;;;;;5012059;28;88319;-48
2023/06/16 12:00:08;;;;;;;;;;;19.40;80.10;;;;;;5011603;28;87955;-48
2023/06/16 12:02:34;;;;;;;;;;;19.40;80.00;;;;;;5014104;28;88603;-51
2023/06/16 12:05:02;;;;;;;;;;;19.40;79.90;;;;;;5013194;28;87128;-47
2023/06/16 12:07:27;;;;;;;;;;;19.40;80.30;;;;;;5013826;28;87444;-52
2023/06/16 12:09:56;;;;;;;;;;;19.40;80.10;;;;;;5011200;28;88092;-48
2023/06/16 12:12:25;;;;;;;;;;;19.40;80.00;;;;;;5012595;28;87074;-49
2023/06/16 12:14:51;;;;;;;;;;;19.40;80.10;;;;;;5013881;28;88063;-48
2023/06/16 12:17:16;;;;;;;;;;;19.40;80.10;;;;;;5010967;28;87901;-50
2023/06/16 12:19:42;;;;;;;;;;;19.40;80.10;;;;;;5012979;28;87142;-48
2023/06/16 12:22:08;;;;;;;;;;;19.40;80.20;;;;;;5013980;28;87067;-47
2023/06/16 12:24:33;;;;;;;;;;;19.50;80.30;;;;;;5013098;28;88130;-51
2023/06/16 12:27:00;;;;;;;;;;;19.40;80.20;;;;;;5012644;28;87418;-49
2023/06/16 12:29:26;;;;;;;;;;;19.40;80.30;;;;;;5010759;28;89398;-54
2023/06/16 12:31:56;;;;;;;;;;;19.40;80.40;;;;;;5012077;28;87127;-47
2023/06/16 12:34:21;;;;;;;;;;;19.40;80.40;;;;;;5011614;28;87958;-48
2023/06/16 12:36:47;;;;;;;;;;;19.40;80.50;;;;;;5013471;28;88038;-47
2023/06/16 12:39:19;;;;;;;;;;;19.30;80.60;;;;;;5011511;28;87138;-49
2023/06/16 12:41:57;;;;;;;;;;;19.30;80.70;;;;;;5010780;28;87493;-48
2023/06/16 12:44:23;;;;;;;;;;;19.30;80.70;;;;;;5013965;28;87942;-47
2023/06/16 12:46:49;;;;;;;;;;;19.30;80.80;;;;;;5010540;28;87268;-49
2023/06/16 12:49:14;;;;;;;;;;;19.30;80.80;;;;;;5010119;28;90176;-50
2023/06/16 12:51:40;;;;;;;;;;;19.30;80.80;;;;;;5011887;28;87100;-53
2023/06/16 12:54:10;;;;;;;;;;;19.30;80.90;;;;;;5013393;28;87960;-48
2023/06/16 12:56:36;;;;;;;;;;;19.30;80.80;;;;;;5011398;28;89877;-47
2023/06/16 12:59:02;;;;;;;;;;;19.30;81.00;;;;;;5010831;28;87254;-47
2023/06/16 13:01:27;;;;;;;;;;;19.30;80.90;;;;;;5009841;28;87500;-50
2023/06/16 13:03:53;;;;;;;;;;;19.30;80.90;;;;;;5012132;28;88142;-52
2023/06/16 13:06:18;;;;;;;;;;;19.30;80.80;;;;;;5015962;28;86395;-49
2023/06/16 13:08:44;;;;;;;;;;;19.30;80.70;;;;;;5010343;28;88181;-52
2023/06/16 13:11:10;;;;;;;;;;;19.30;80.70;;;;;;5012857;28;87050;-46
2023/06/16 13:13:35;;;;;;;;;;;19.30;80.80;;;;;;5010439;28;90734;-53
2023/06/16 13:16:01;;;;;;;;;;;19.30;80.80;;;;;;5009815;28;88024;-54
2023/06/16 13:18:26;;;;;;;;;;;19.30;81.00;;;;;;5007723;28;87258;-47
2023/06/16 13:20:52;;;;;;;;;;;19.30;80.90;;;;;;5011491;28;87850;-49
2023/06/16 13:23:18;;;;;;;;;;;19.30;80.80;;;;;;5012717;28;88009;-52
2023/06/16 13:25:43;;;;;;;;;;;19.40;80.60;;;;;;5010315;28;87154;-50
2023/06/16 13:28:09;;;;;;;;;;;19.40;80.70;;;;;;5014209;28;87619;-49
2023/06/16 13:30:35;;;;;;;;;;;19.40;80.80;;;;;;5013581;28;86411;-49
2023/06/16 13:33:00;;;;;;;;;;;19.40;80.80;;;;;;5002332;28;88507;-49
2023/06/16 13:35:26;;;;;;;;;;;19.40;80.70;;;;;;5011104;28;88043;-47
2023/06/16 13:37:51;;;;;;;;;;;19.40;80.70;;;;;;5009992;28;88071;-51
2023/06/16 13:40:17;;;;;;;;;;;19.40;80.70;;;;;;5011875;28;89809;-53
2023/06/16 13:42:42;;;;;;;;;;;19.40;80.80;;;;;;5010849;28;87264;-53
2023/06/16 13:45:08;;;;;;;;;;;19.40;80.80;;;;;;5010660;28;87127;-50
2023/06/16 13:47:35;;;;;;;;;;;19.40;80.80;;;;;;5009436;28;87950;-49
2023/06/16 13:50:00;;;;;;;;;;;19.40;80.70;;;;;;5014120;28;89562;-48
2023/06/16 13:52:26;;;;;;;;;;;19.50;80.70;;;;;;5012400;28;87361;-48
2023/06/16 13:54:52;;;;;;;;;;;19.50;80.80;;;;;;5009893;28;88975;-51
2023/06/16 13:57:17;;;;;;;;;;;19.40;80.70;;;;;;5011934;28;87109;-48
2023/06/16 13:59:43;;;;;;;;;;;19.50;80.80;;;;;;5014690;28;87132;-49
2023/06/16 14:02:08;;;;;;;;;;;19.50;80.70;;;;;;5011123;28;88596;-48
2023/06/16 14:04:34;;;;;;;;;;;19.50;80.80;;;;;;5014056;28;87030;-52
2023/06/16 14:07:00;;;;;;;;;;;19.50;80.60;;;;;;5013901;28;88165;-48
2023/06/16 14:09:25;;;;;;;;;;;19.50;80.70;;;;;;5015368;28;87983;-51
2023/06/16 14:11:51;;;;;;;;;;;19.50;80.70;;;;;;5016743;28;87193;-50